^^
Station Historical Data
Daily Summary for May 5, 2019 Units:  English    Metric   Both
« Previous Day
Next Day »
Daily Weekly Monthly Yearly Custom
  High: Low: Average:
Temperature: 52.4 °F 32.3 °F 41.3 °F
Dew Point: 33.6 °F 21.4 °F 29 °F
Humidity: 89% 33% 65%
Wind Speed: 17mph 0mph 7.6mph
Wind Gust: 21mph - -
Wind- - West
Pressure: 30.02 in 29.84 in -
Precipitation: 0 in    
Historical Graphs
 
 
Tabular Data for May 5, 2019
Time Temperature Dew Point Pressure Wind Wind Speed Wind Gust Humidity Rainfall Rate (Hourly) solar Conditions
00:04 36.7 °F 31.1 °F 29.85 in NW 3 mph 5 mph 80% 0 in 0.00 W/m2
00:09 36.9 °F 31.3 °F 29.85 in NW 1 mph 5 mph 80% 0 in 0.00 W/m2
00:14 36.9 °F 31 °F 29.85 in NW 4 mph 5 mph 79% 0 in 0.00 W/m2
00:19 37.2 °F 31.3 °F 29.85 in WNW 7 mph 8 mph 79% 0 in 0.00 W/m2
00:24 37.4 °F 31.5 °F 29.85 in NW 6 mph 8 mph 79% 0 in 0.00 W/m2
00:29 37.4 °F 31.5 °F 29.85 in WNW 6 mph 7 mph 79% 0 in 0.00 W/m2
00:31 37.5 °F 31.6 °F 29.85 in WNW 6 mph 7 mph 79% 0 in 0.00 W/m2
00:39 37.3 °F 31.4 °F 29.84 in Calm     79% 0 in 0.00 W/m2
00:44 37.3 °F 31.4 °F 29.84 in NW 4 mph 8 mph 79% 0 in 0.00 W/m2
00:49 37.2 °F 31.3 °F 29.85 in NW 5 mph 8 mph 79% 0 in 0.00 W/m2
00:54 37.3 °F 31.4 °F 29.85 in NW 7 mph 9 mph 79% 0 in 0.00 W/m2
00:59 37.3 °F 31.4 °F 29.85 in NW 8 mph 9 mph 79% 0 in 0.00 W/m2
01:04 37.2 °F 31.3 °F 29.85 in NW 5 mph 8 mph 79% 0 in 0.00 W/m2
01:09 37.1 °F 31.5 °F 29.85 in WNW 4 mph 9 mph 80% 0 in 0.00 W/m2
01:14 37.2 °F 31.6 °F 29.85 in NW 8 mph 10 mph 80% 0 in 0.00 W/m2
01:19 37.5 °F 32.2 °F 29.85 in WNW 8 mph 12 mph 81% 0 in 0.00 W/m2
01:24 37.7 °F 32.1 °F 29.85 in NW 6 mph 12 mph 80% 0 in 0.00 W/m2
01:29 37.7 °F 32.1 °F 29.85 in NNW 4 mph 11 mph 80% 0 in 0.00 W/m2
01:34 37.7 °F 32.1 °F 29.85 in NW 5 mph 12 mph 80% 0 in 0.00 W/m2
01:39 37.7 °F 32.1 °F 29.85 in NW 6 mph 12 mph 80% 0 in 0.00 W/m2
01:44 37.7 °F 32.1 °F 29.85 in NW 4 mph 11 mph 80% 0 in 0.00 W/m2
01:49 37.6 °F 32 °F 29.85 in NW 2 mph 12 mph 80% 0 in 0.00 W/m2
01:54 37.3 °F 31.7 °F 29.85 in NW 5 mph 12 mph 80% 0 in 0.00 W/m2
01:59 37.2 °F 31.9 °F 29.86 in NW 5 mph 12 mph 81% 0 in 0.00 W/m2
02:04 37 °F 31.7 °F 29.86 in WNW 3 mph 12 mph 81% 0 in 0.00 W/m2
02:09 36.8 °F 31.5 °F 29.86 in NW 2 mph 12 mph 81% 0 in 0.00 W/m2
02:14 36.7 °F 31.7 °F 29.86 in WNW 2 mph 12 mph 82% 0 in 0.00 W/m2
02:19 36.4 °F 31.4 °F 29.85 in WNW 3 mph 8 mph 82% 0 in 0.00 W/m2
02:24 36.1 °F 31.1 °F 29.85 in WNW 3 mph 8 mph 82% 0 in 0.00 W/m2
02:29 35.8 °F 31.1 °F 29.85 in WNW 2 mph 4 mph 83% 0 in 0.00 W/m2
02:34 35.7 °F 31 °F 29.85 in WNW 3 mph 4 mph 83% 0 in 0.00 W/m2
02:39 35.7 °F 31.3 °F 29.85 in NW 4 mph 9 mph 84% 0 in 0.00 W/m2
02:44 36 °F 31.6 °F 29.85 in WNW 5 mph 9 mph 84% 0 in 0.00 W/m2
02:49 36.2 °F 31.5 °F 29.85 in NW 7 mph 9 mph 83% 0 in 0.00 W/m2
02:54 36.4 °F 32 °F 29.85 in WNW 7 mph 12 mph 84% 0 in 0.00 W/m2
02:59 36.6 °F 31.9 °F 29.85 in NW 6 mph 13 mph 83% 0 in 0.00 W/m2
03:04 36.5 °F 31.8 °F 29.86 in NW 5 mph 13 mph 83% 0 in 0.00 W/m2
03:09 36.4 °F 31.7 °F 29.86 in NW 10 mph 14 mph 83% 0 in 0.00 W/m2
03:14 36.4 °F 31.7 °F 29.86 in NW 10 mph 14 mph 83% 0 in 0.00 W/m2
03:19 36.3 °F 31.9 °F 29.86 in NW 8 mph 14 mph 84% 0 in 0.00 W/m2
03:24 36.4 °F 32 °F 29.86 in WNW 10 mph 14 mph 84% 0 in 0.00 W/m2
03:29 36.8 °F 32.1 °F 29.86 in NW 10 mph 16 mph 83% 0 in 0.00 W/m2
03:34 37 °F 32.3 °F 29.86 in NW 9 mph 16 mph 83% 0 in 0.00 W/m2
03:39 36.9 °F 31.9 °F 29.86 in NNW 8 mph 15 mph 82% 0 in 0.00 W/m2
03:44 36.5 °F 31.8 °F 29.86 in NNW 9 mph 15 mph 83% 0 in 0.00 W/m2
03:49 36.2 °F 31.5 °F 29.86 in NNW 6 mph 11 mph 83% 0 in 0.00 W/m2
03:54 36.1 °F 31.7 °F 29.86 in NNW 9 mph 11 mph 84% 0 in 0.00 W/m2
03:59 36.1 °F 31.7 °F 29.86 in NW 5 mph 11 mph 84% 0 in 0.00 W/m2
04:04 36.1 °F 32 °F 29.86 in NW 5 mph 10 mph 85% 0 in 0.00 W/m2
04:09 36.4 °F 32.3 °F 29.87 in NNW 5 mph 13 mph 85% 0 in 0.00 W/m2
04:14 36.6 °F 32.2 °F 29.87 in NW 9 mph 13 mph 84% 0 in 0.00 W/m2
04:19 36.6 °F 32.2 °F 29.87 in NNW 5 mph 12 mph 84% 0 in 0.00 W/m2
04:24 36.5 °F 33.6 °F 29.87 in NW 9 mph 12 mph 89% 0 in 0.00 W/m2
04:29 36.5 °F 32.1 °F 29.87 in NW 6 mph 12 mph 84% 0 in 0.00 W/m2
04:34 36.5 °F 32.1 °F 29.87 in NW 4 mph 12 mph 84% 0 in 0.00 W/m2
04:39 36.4 °F 32 °F 29.87 in NW 7 mph 13 mph 84% 0 in 0.00 W/m2
04:44 36.3 °F 31.9 °F 29.87 in NW 5 mph 13 mph 84% 0 in 0.00 W/m2
04:49 36.1 °F 31.7 °F 29.87 in NW 5 mph 12 mph 84% 0 in 0.00 W/m2
04:54 36.1 °F 32 °F 29.87 in NW 6 mph 12 mph 85% 0 in 0.00 W/m2
04:59 36.3 °F 32.2 °F 29.87 in NW 11 mph 13 mph 85% 0 in 0.00 W/m2
05:04 36.5 °F 32.1 °F 29.87 in NW 11 mph 14 mph 84% 0 in 0.00 W/m2
05:09 36.6 °F 31.9 °F 29.87 in NW 9 mph 16 mph 83% 0 in 0.00 W/m2
05:14 36.6 °F 31.9 °F 29.87 in NNW 10 mph 16 mph 83% 0 in 0.00 W/m2
05:19 36.8 °F 31.8 °F 29.87 in NNW 10 mph 15 mph 82% 0 in 0.00 W/m2
05:24 36.8 °F 31.5 °F 29.87 in NW 14 mph 18 mph 81% 0 in 0.00 W/m2
05:29 37.4 °F 31.5 °F 29.87 in NW 12 mph 18 mph 79% 0 in 0.00 W/m2
05:34 37.2 °F 31.6 °F 29.87 in NNW 12 mph 18 mph 80% 0 in 0.00 W/m2
05:39 36.8 °F 31.5 °F 29.87 in NNW 11 mph 18 mph 81% 0 in 0.00 W/m2
05:44 36.6 °F 31.3 °F 29.87 in NW 11 mph 18 mph 81% 0 in 0.00 W/m2
05:49 36.6 °F 31.3 °F 29.87 in NNW 14 mph 18 mph 81% 0 in 0.00 W/m2
05:54 36.7 °F 31.1 °F 29.87 in NW 10 mph 18 mph 80% 0 in 0.00 W/m2
05:59 36.6 °F 31 °F 29.87 in NW 12 mph 18 mph 80% 0 in 0.00 W/m2
06:04 36.4 °F 31.1 °F 29.87 in NW 5 mph 18 mph 81% 0 in 0.00 W/m2
06:09 36.4 °F 31.1 °F 29.87 in NW 10 mph 12 mph 81% 0 in 0.00 W/m2
06:14 36.4 °F 30.8 °F 29.88 in WNW 8 mph 11 mph 80% 0 in 0.00 W/m2
06:19 36.4 °F 31.1 °F 29.88 in NW 9 mph 11 mph 81% 0 in 0.00 W/m2
06:24 36.2 °F 30.9 °F 29.88 in NW 10 mph 13 mph 81% 0 in 0.00 W/m2
06:29 36 °F 31 °F 29.88 in NNW 8 mph 13 mph 82% 0 in 5.00 W/m2
06:34 35.9 °F 30.9 °F 29.88 in NW 6 mph 13 mph 82% 0 in 7.00 W/m2
06:39 35.9 °F 31.2 °F 29.88 in NW 10 mph 13 mph 83% 0 in 14.00 W/m2
06:44 35.9 °F 31.2 °F 29.89 in NNW 8 mph 13 mph 83% 0 in 21.00 W/m2
06:49 35.9 °F 31.2 °F 29.89 in NNW 6 mph 13 mph 83% 0 in 21.00 W/m2
06:54 36 °F 31 °F 29.90 in NNW 8 mph 13 mph 82% 0 in 23.00 W/m2
06:59 36.2 °F 30.9 °F 29.90 in NNW 9 mph 11 mph 81% 0 in 26.00 W/m2
07:04 36.5 °F 30.6 °F 29.90 in NW 5 mph 11 mph 79% 0 in 33.00 W/m2
07:09 36.6 °F 30.7 °F 29.91 in NW 8 mph 11 mph 79% 0 in 37.00 W/m2
07:14 36.7 °F 30.5 °F 29.90 in NNW 8 mph 13 mph 78% 0 in 47.00 W/m2
07:19 36.8 °F 30.6 °F 29.90 in North 6 mph 13 mph 78% 0 in 56.00 W/m2
07:24 36.8 °F 30.3 °F 29.90 in NNW 9 mph 13 mph 77% 0 in 62.00 W/m2
07:29 36.8 °F 30.6 °F 29.91 in North 9 mph 13 mph 78% 0 in 67.00 W/m2
07:34 36.8 °F 30.6 °F 29.91 in North 8 mph 13 mph 78% 0 in 72.00 W/m2
07:39 36.8 °F 30.6 °F 29.91 in NNW 8 mph 13 mph 78% 0 in 79.00 W/m2
07:44 36.7 °F 30.5 °F 29.91 in NNW 6 mph 13 mph 78% 0 in 93.00 W/m2
07:49 36.8 °F 30.6 °F 29.91 in North 4 mph 11 mph 78% 0 in 107.00 W/m2
07:54 36.9 °F 30.7 °F 29.91 in North 5 mph 11 mph 78% 0 in 113.00 W/m2
07:59 37 °F 30.5 °F 29.91 in NNW 10 mph 11 mph 77% 0 in 120.00 W/m2
08:04 37.1 °F 30.6 °F 29.91 in NNW 4 mph 10 mph 77% 0 in 135.00 W/m2
08:09 37.3 °F 30.7 °F 29.91 in NNW 6 mph 10 mph 77% 0 in 160.00 W/m2
08:14 37.4 °F 30.5 °F 29.91 in NNW 8 mph 10 mph 76% 0 in 172.00 W/m2
08:19 37.5 °F 30.3 °F 29.91 in NNW 8 mph 10 mph 75% 0 in 163.00 W/m2
08:24 37.6 °F 30.4 °F 29.92 in NNW 5 mph 10 mph 75% 0 in 141.00 W/m2
08:29 37.7 °F 30.2 °F 29.92 in NNW 5 mph 10 mph 74% 0 in 149.00 W/m2
08:34 37.9 °F 30 °F 29.92 in NNW 6 mph 10 mph 73% 0 in 165.00 W/m2
08:39 38.1 °F 30.2 °F 29.92 in NNW 6 mph 9 mph 73% 0 in 155.00 W/m2
08:44 38.4 °F 30.2 °F 29.92 in NNW 4 mph 10 mph 72% 0 in 181.00 W/m2
08:49 38.7 °F 30.4 °F 29.92 in NNW 6 mph 10 mph 72% 0 in 239.00 W/m2
08:54 39.2 °F 30.9 °F 29.92 in NNW 5 mph 10 mph 72% 0 in 313.00 W/m2
08:59 39.7 °F 30.7 °F 29.92 in North 5 mph 10 mph 70% 0 in 267.00 W/m2
09:04 40.2 °F 30.8 °F 29.92 in NNW 5 mph 10 mph 69% 0 in 285.00 W/m2
09:09 40.8 °F 31.4 °F 29.92 in NNW 6 mph 10 mph 69% 0 in 251.00 W/m2
09:14 40.9 °F 30.4 °F 29.92 in North 8 mph 12 mph 66% 0 in 279.00 W/m2
09:19 41.3 °F 30.8 °F 29.92 in NNW 5 mph 12 mph 66% 0 in 318.00 W/m2
09:24 41.5 °F 30.6 °F 29.92 in NNW 9 mph 12 mph 65% 0 in 253.00 W/m2
09:29 41.5 °F 30.2 °F 29.92 in NNW 8 mph 12 mph 64% 0 in 225.00 W/m2
09:34 41.6 °F 30.7 °F 29.92 in North 6 mph 11 mph 65% 0 in 227.00 W/m2
09:39 41.9 °F 30.6 °F 29.92 in North 8 mph 12 mph 64% 0 in 345.00 W/m2
09:44 42.4 °F 30.7 °F 29.92 in NNW 10 mph 12 mph 63% 0 in 436.00 W/m2
09:49 42.7 °F 29.4 °F 29.92 in NNW 5 mph 12 mph 59% 0 in 473.00 W/m2
09:54 43.4 °F 30.4 °F 29.91 in North 12 mph 12 mph 60% 0 in 501.00 W/m2
09:59 44.2 °F 29.9 °F 29.92 in NNW 6 mph 13 mph 57% 0 in 432.00 W/m2
10:04 44.5 °F 30.2 °F 29.91 in North 8 mph 13 mph 57% 0 in 427.00 W/m2
10:09 44.9 °F 30.6 °F 29.91 in NNE 3 mph 13 mph 57% 0 in 443.00 W/m2
10:14 45.2 °F 28.6 °F 29.91 in NW 9 mph 13 mph 52% 0 in 469.00 W/m2
10:19 45.2 °F 27.6 °F 29.91 in NNW 9 mph 12 mph 50% 0 in 554.00 W/m2
10:24 45.5 °F 27.9 °F 29.91 in NNW 11 mph 13 mph 50% 0 in 580.00 W/m2
10:29 46 °F 26.4 °F 29.91 in NNE 6 mph 13 mph 46% 0 in 517.00 W/m2
10:34 46.6 °F 26.9 °F 29.91 in North 12 mph 18 mph 46% 0 in 541.00 W/m2
10:39 46.7 °F 25.9 °F 29.91 in NNE 10 mph 18 mph 44% 0 in 640.00 W/m2
10:44 47.7 °F 27.4 °F 29.91 in NNE 12 mph 18 mph 45% 0 in 594.00 W/m2
10:49 48.2 °F 24.4 °F 29.91 in North 11 mph 18 mph 39% 0 in 624.00 W/m2
10:54 47.6 °F 25.6 °F 29.91 in NNE 9 mph 15 mph 42% 0 in 612.00 W/m2
10:59 48.6 °F 27.1 °F 29.91 in North 9 mph 17 mph 43% 0 in 638.00 W/m2
11:04 49.1 °F 24.6 °F 29.91 in NNE 13 mph 21 mph 38% 0 in 601.00 W/m2
11:09 48.9 °F 25.6 °F 29.91 in NNW 6 mph 21 mph 40% 0 in 631.00 W/m2
11:14 49 °F 26.3 °F 29.91 in North 10 mph 21 mph 41% 0 in 587.00 W/m2
11:19 49.4 °F 25.4 °F 29.91 in NNE 13 mph 20 mph 39% 0 in 598.00 W/m2
11:24 49.7 °F 28.1 °F 29.91 in North 5 mph 20 mph 43% 0 in 626.00 W/m2
11:29 49.7 °F 25.7 °F 29.91 in NNE 13 mph 18 mph 39% 0 in 656.00 W/m2
11:34 50 °F 27.2 °F 29.91 in NNE 9 mph 18 mph 41% 0 in 708.00 W/m2
11:39 50.4 °F 25.7 °F 29.91 in NNW 9 mph 18 mph 38% 0 in 782.00 W/m2
11:44 50.2 °F 28 °F 29.90 in NW 14 mph 18 mph 42% 0 in 800.00 W/m2
11:49 49.8 °F 25.8 °F 29.90 in NNW 13 mph 17 mph 39% 0 in 701.00 W/m2
11:54 49.3 °F 28.3 °F 29.90 in NNE 10 mph 17 mph 44% 0 in 779.00 W/m2
11:59 50.2 °F 27.4 °F 29.90 in North 14 mph 18 mph 41% 0 in 846.00 W/m2
12:04 50.6 °F 25.9 °F 29.90 in NNW 14 mph 19 mph 38% 0 in 847.00 W/m2
12:09 50 °F 25.4 °F 29.90 in NNW 8 mph 19 mph 38% 0 in 849.00 W/m2
12:14 49.7 °F 26.3 °F 29.91 in North 13 mph 19 mph 40% 0 in 877.00 W/m2
12:19 49.8 °F 25.8 °F 29.91 in NNW 10 mph 19 mph 39% 0 in 722.00 W/m2
12:24 49.5 °F 24.3 °F 29.91 in NNE 11 mph 18 mph 37% 0 in 780.00 W/m2
12:29 50.2 °F 26.8 °F 29.91 in NNE 14 mph 21 mph 40% 0 in 939.00 W/m2
12:34 51 °F 26.9 °F 29.91 in NNW 8 mph 21 mph 39% 0 in 923.00 W/m2
12:39 50.3 °F 25.6 °F 29.91 in NNE 12 mph 19 mph 38% 0 in 617.00 W/m2
12:44 50.5 °F 26.4 °F 29.90 in North 10 mph 20 mph 39% 0 in 622.00 W/m2
12:49 50.6 °F 27.1 °F 29.91 in North 14 mph 20 mph 40% 0 in 698.00 W/m2
12:54 50.8 °F 26.1 °F 29.91 in NNW 12 mph 20 mph 38% 0 in 613.00 W/m2
12:59 50.9 °F 26.2 °F 29.91 in NNE 8 mph 20 mph 38% 0 in 777.00 W/m2
13:04 51.8 °F 28.8 °F 29.91 in North 14 mph 19 mph 41% 0 in 1042.00 W/m2
13:09 52.4 °F 26.2 °F 29.91 in North 9 mph 19 mph 36% 0 in 705.00 W/m2
13:14 51.3 °F 23.1 °F 29.91 in NNW 14 mph 19 mph 33% 0 in 582.00 W/m2
13:19 50.2 °F 24.9 °F 29.91 in NNE 8 mph 19 mph 37% 0 in 814.00 W/m2
13:24 50.7 °F 25.3 °F 29.91 in NNE 12 mph 20 mph 37% 0 in 724.00 W/m2
13:29 51.5 °F 26.1 °F 29.91 in NNE 9 mph 20 mph 37% 0 in 728.00 W/m2
13:34 51.4 °F 26 °F 29.91 in NNE 9 mph 19 mph 37% 0 in 596.00 W/m2
13:39 51.5 °F 25.4 °F 29.91 in NNW 4 mph 17 mph 36% 0 in 729.00 W/m2
13:44 51.7 °F 25.6 °F 29.91 in NNE 7 mph 17 mph 36% 0 in 541.00 W/m2
13:49 52 °F 27.8 °F 29.90 in NE 4 mph 17 mph 39% 0 in 503.00 W/m2
13:54 52.3 °F 27.4 °F 29.90 in NNE 10 mph 14 mph 38% 0 in 475.00 W/m2
13:59 52.2 °F 26.7 °F 29.90 in NE 5 mph 12 mph 37% 0 in 561.00 W/m2
14:04 51.7 °F 25.6 °F 29.90 in NE 8 mph 12 mph 36% 0 in 635.00 W/m2
14:09 52.1 °F 28.5 °F 29.90 in NE 10 mph 14 mph 40% 0 in 642.00 W/m2
14:14 51.7 °F 24.2 °F 29.90 in North 11 mph 16 mph 34% 0 in 782.00 W/m2
14:19 51.4 °F 27.2 °F 29.90 in NNW 8 mph 16 mph 39% 0 in 561.00 W/m2
14:24 50.9 °F 25.5 °F 29.90 in North 12 mph 15 mph 37% 0 in 508.00 W/m2
14:29 50.2 °F 24.9 °F 29.90 in North 9 mph 16 mph 37% 0 in 327.00 W/m2
14:34 49.9 °F 26.5 °F 29.91 in North 6 mph 16 mph 40% 0 in 285.00 W/m2
14:39 49.6 °F 23.7 °F 29.91 in NNW 9 mph 16 mph 36% 0 in 269.00 W/m2
14:44 49.1 °F 25.2 °F 29.91 in NNE 7 mph 16 mph 39% 0 in 287.00 W/m2
14:49 49.3 °F 24.7 °F 29.90 in NNE 8 mph 13 mph 38% 0 in 302.00 W/m2
14:54 49.5 °F 24.9 °F 29.90 in North 10 mph 16 mph 38% 0 in 294.00 W/m2
14:59 49.2 °F 23.4 °F 29.91 in NNW 5 mph 16 mph 36% 0 in 264.00 W/m2
15:04 48.8 °F 24.3 °F 29.91 in NNW 8 mph 16 mph 38% 0 in 239.00 W/m2
15:09 48.6 °F 23.5 °F 29.91 in NNW 10 mph 16 mph 37% 0 in 227.00 W/m2
15:14 48.1 °F 22.4 °F 29.91 in NW 12 mph 15 mph 36% 0 in 214.00 W/m2
15:19 47.8 °F 22.8 °F 29.91 in NW 5 mph 15 mph 37% 0 in 214.00 W/m2
15:24 47.9 °F 24.1 °F 29.91 in North 8 mph 15 mph 39% 0 in 197.00 W/m2
15:29 47.8 °F 21.4 °F 29.91 in NW 10 mph 16 mph 35% 0 in 192.00 W/m2
15:34 47.4 °F 21.7 °F 29.91 in North 9 mph 17 mph 36% 0 in 214.00 W/m2
15:39 47.5 °F 22.5 °F 29.91 in NNW 10 mph 17 mph 37% 0 in 204.00 W/m2
15:44 47.4 °F 22.4 °F 29.91 in WNW 9 mph 17 mph 37% 0 in 193.00 W/m2
15:49 47.3 °F 21.7 °F 29.91 in WNW 9 mph 17 mph 36% 0 in 204.00 W/m2
15:54 47.4 °F 22.4 °F 29.91 in NW 8 mph 14 mph 37% 0 in 209.00 W/m2
15:59 47.3 °F 22.3 °F 29.91 in NW 9 mph 15 mph 37% 0 in 248.00 W/m2
16:04 47.3 °F 22.3 °F 29.91 in NW 11 mph 15 mph 37% 0 in 237.00 W/m2
16:09 47.5 °F 22.5 °F 29.91 in NW 9 mph 14 mph 37% 0 in 244.00 W/m2
16:14 47.6 °F 22.6 °F 29.92 in NNW 8 mph 15 mph 37% 0 in 250.00 W/m2
16:19 47.6 °F 23.2 °F 29.91 in NW 5 mph 15 mph 38% 0 in 229.00 W/m2
16:24 47.5 °F 22.5 °F 29.91 in NNW 12 mph 15 mph 37% 0 in 218.00 W/m2
16:29 47.5 °F 23.1 °F 29.91 in WNW 14 mph 15 mph 38% 0 in 234.00 W/m2
16:34 47.3 °F 22.9 °F 29.91 in WNW 11 mph 15 mph 38% 0 in 239.00 W/m2
16:39 47.3 °F 23.6 °F 29.92 in WNW 7 mph 14 mph 39% 0 in 265.00 W/m2
16:44 47.3 °F 22.3 °F 29.92 in WNW 9 mph 14 mph 37% 0 in 244.00 W/m2
16:49 47.3 °F 23.6 °F 29.92 in NW 10 mph 16 mph 39% 0 in 216.00 W/m2
16:54 47 °F 25.6 °F 29.92 in NNW 13 mph 17 mph 43% 0 in 186.00 W/m2
16:59 46.9 °F 25.5 °F 29.92 in North 17 mph 18 mph 43% 0 in 172.00 W/m2
17:04 46.8 °F 26 °F 29.93 in NNW 15 mph 21 mph 44% 0 in 162.00 W/m2
17:09 46.2 °F 26 °F 29.93 in North 5 mph 21 mph 45% 0 in 165.00 W/m2
17:14 45.7 °F 25.5 °F 29.93 in NW 11 mph 21 mph 45% 0 in 155.00 W/m2
17:19 45.4 °F 25.8 °F 29.93 in North 2 mph 21 mph 46% 0 in 148.00 W/m2
17:24 45.5 °F 26.9 °F 29.93 in NNW 9 mph 13 mph 48% 0 in 141.00 W/m2
17:29 45.6 °F 27.5 °F 29.93 in North 4 mph 13 mph 49% 0 in 141.00 W/m2
17:34 45.4 °F 26.8 °F 29.94 in West 3 mph 13 mph 48% 0 in 137.00 W/m2
17:39 45.4 °F 27.8 °F 29.94 in NW 6 mph 13 mph 50% 0 in 130.00 W/m2
17:44 45.1 °F 27.6 °F 29.94 in Calm   13 mph 50% 0 in 127.00 W/m2
17:49 45 °F 27 °F 29.94 in West 3 mph 11 mph 49% 0 in 120.00 W/m2
17:54 44.8 °F 27.3 °F 29.95 in WNW 9 mph 16 mph 50% 0 in 120.00 W/m2
17:59 44.6 °F 27.1 °F 29.95 in NW 9 mph 16 mph 50% 0 in 111.00 W/m2
18:04 44.2 °F 27.2 °F 29.96 in NW 13 mph 17 mph 51% 0 in 121.00 W/m2
18:09 43.7 °F 28.6 °F 29.96 in NNW 14 mph 21 mph 55% 0 in 113.00 W/m2
18:14 43 °F 28.4 °F 29.97 in NW 9 mph 21 mph 56% 0 in 104.00 W/m2
18:19 42.7 °F 28.5 °F 29.97 in WNW 10 mph 21 mph 57% 0 in 107.00 W/m2
18:24 42.7 °F 28.5 °F 29.97 in WNW 5 mph 21 mph 57% 0 in 91.00 W/m2
18:29 42.8 °F 28.6 °F 29.97 in WNW 7 mph 12 mph 57% 0 in 84.00 W/m2
18:34 42.8 °F 27.7 °F 29.97 in NW 7 mph 13 mph 55% 0 in 76.00 W/m2
18:39 42.8 °F 28.2 °F 29.97 in West 11 mph 16 mph 56% 0 in 70.00 W/m2
18:44 42.7 °F 28.1 °F 29.97 in WNW 11 mph 16 mph 56% 0 in 67.00 W/m2
18:49 42.5 °F 28.3 °F 29.98 in NW 8 mph 16 mph 57% 0 in 69.00 W/m2
18:54 42.4 °F 28.7 °F 29.97 in WNW 9 mph 16 mph 58% 0 in 69.00 W/m2
18:59 42.3 °F 28.6 °F 29.97 in WSW 8 mph 13 mph 58% 0 in 62.00 W/m2
19:04 42.3 °F 28.6 °F 29.97 in WSW 8 mph 13 mph 58% 0 in 56.00 W/m2
19:09 42.4 °F 29.1 °F 29.97 in West 8 mph 12 mph 59% 0 in 54.00 W/m2
19:14 42.3 °F 29 °F 29.97 in West 10 mph 18 mph 59% 0 in 51.00 W/m2
19:19 41.9 °F 29 °F 29.97 in WNW 10 mph 18 mph 60% 0 in 49.00 W/m2
19:24 41.8 °F 28.9 °F 29.98 in West 7 mph 18 mph 60% 0 in 51.00 W/m2
19:29 41.9 °F 29 °F 29.98 in NW 8 mph 18 mph 60% 0 in 47.00 W/m2
19:34 42 °F 29.5 °F 29.98 in WNW 7 mph 11 mph 61% 0 in 49.00 W/m2
19:39 41.8 °F 29.7 °F 29.98 in West 4 mph 11 mph 62% 0 in 47.00 W/m2
19:44 41.7 °F 30 °F 29.98 in WNW 14 mph 14 mph 63% 0 in 46.00 W/m2
19:49 41.3 °F 30.4 °F 29.98 in WNW 12 mph 14 mph 65% 0 in 51.00 W/m2
19:54 41.1 °F 30.6 °F 29.98 in WNW 13 mph 14 mph 66% 0 in 54.00 W/m2
19:59 40.9 °F 30.8 °F 29.98 in West 9 mph 14 mph 67% 0 in 54.00 W/m2
20:04 40.8 °F 30.7 °F 29.98 in WSW 9 mph 14 mph 67% 0 in 42.00 W/m2
20:09 40.7 °F 31 °F 29.98 in WSW 8 mph 14 mph 68% 0 in 37.00 W/m2
20:14 40.7 °F 31 °F 29.98 in WSW 5 mph 12 mph 68% 0 in 44.00 W/m2
20:19 40.7 °F 31 °F 29.98 in West 11 mph 12 mph 68% 0 in 56.00 W/m2
20:24 40.7 °F 31 °F 29.98 in West 10 mph 12 mph 68% 0 in 40.00 W/m2
20:29 40.5 °F 31.1 °F 29.98 in West 11 mph 12 mph 69% 0 in 28.00 W/m2
20:34 40.4 °F 31 °F 29.98 in West 8 mph 12 mph 69% 0 in 25.00 W/m2
20:39 40.2 °F 30.8 °F 29.98 in West 6 mph 12 mph 69% 0 in 21.00 W/m2
20:44 40 °F 31 °F 29.98 in West 6 mph 12 mph 70% 0 in 18.00 W/m2
20:49 39.7 °F 31.4 °F 29.98 in SW 5 mph 12 mph 72% 0 in 11.00 W/m2
20:54 39.4 °F 31.1 °F 29.98 in WSW 7 mph 10 mph 72% 0 in 5.00 W/m2
20:59 39.1 °F 31.2 °F 29.99 in SW 6 mph 10 mph 73% 0 in 0.00 W/m2
21:04 38.9 °F 31.3 °F 29.99 in WSW 5 mph 10 mph 74% 0 in 0.00 W/m2
21:09 38.7 °F 31.1 °F 29.99 in WSW 6 mph 10 mph 74% 0 in 0.00 W/m2
21:14 38.4 °F 31.2 °F 29.99 in WSW 9 mph 9 mph 75% 0 in 0.00 W/m2
21:19 38.2 °F 31.3 °F 29.99 in WSW 5 mph 9 mph 76% 0 in 0.00 W/m2
21:24 38 °F 31.4 °F 29.99 in SW 4 mph 9 mph 77% 0 in 0.00 W/m2
21:29 37.7 °F 31.1 °F 30.00 in WSW 4 mph 9 mph 77% 0 in 0.00 W/m2
21:34 37.4 °F 31.2 °F 30.00 in WSW 5 mph 9 mph 78% 0 in 0.00 W/m2
21:39 37 °F 30.8 °F 30.00 in WSW 5 mph 7 mph 78% 0 in 0.00 W/m2
21:44 36.8 °F 30.9 °F 30.00 in WSW 4 mph 7 mph 79% 0 in 0.00 W/m2
21:49 36.4 °F 30.8 °F 30.00 in WSW 5 mph 7 mph 80% 0 in 0.00 W/m2
21:54 36.1 °F 30.5 °F 30.00 in WSW 6 mph 7 mph 80% 0 in 0.00 W/m2
21:59 35.7 °F 30.4 °F 30.00 in WSW 4 mph 7 mph 81% 0 in 0.00 W/m2
22:04 35.5 °F 30.5 °F 30.00 in WSW 4 mph 6 mph 82% 0 in 0.00 W/m2
22:09 35.2 °F 30.3 °F 30.00 in WSW 4 mph 7 mph 82% 0 in 0.00 W/m2
22:14 35 °F 30.4 °F 30.00 in WSW 3 mph 7 mph 83% 0 in 0.00 W/m2
22:19 34.7 °F 30.1 °F 30.01 in WSW 4 mph 7 mph 83% 0 in 0.00 W/m2
22:24 34.5 °F 30.2 °F 30.01 in West 4 mph 7 mph 84% 0 in 0.00 W/m2
22:29 34.4 °F 30.4 °F 30.01 in West 2 mph 6 mph 85% 0 in 0.00 W/m2
22:34 34.5 °F 30.7 °F 30.01 in West 4 mph 6 mph 86% 0 in 0.00 W/m2
22:39 34.7 °F 30.9 °F 30.01 in WNW 4 mph 6 mph 86% 0 in 0.00 W/m2
22:44 34.8 °F 31 °F 30.01 in WNW 4 mph 7 mph 86% 0 in 0.00 W/m2
22:49 34.7 °F 30.9 °F 30.01 in NW 3 mph 7 mph 86% 0 in 0.00 W/m2
22:54 34.3 °F 30.3 °F 30.02 in NW 4 mph 7 mph 85% 0 in 0.00 W/m2
22:59 33.8 °F 30.1 °F 30.02 in WNW 2 mph 7 mph 86% 0 in 0.00 W/m2
23:04 33.9 °F 30.4 °F 30.01 in WNW 3 mph 7 mph 87% 0 in 0.00 W/m2
23:09 33.5 °F 29.8 °F 30.02 in WNW 3 mph 5 mph 86% 0 in 0.00 W/m2
23:14 33.1 °F 29.7 °F 30.01 in WNW 5 mph 5 mph 87% 0 in 0.00 W/m2
23:19 32.8 °F 29.4 °F 30.02 in NW 4 mph 7 mph 87% 0 in 0.00 W/m2
23:24 32.7 °F 29.5 °F 30.02 in NW 5 mph 7 mph 88% 0 in 0.00 W/m2
23:29 32.4 °F 29.2 °F 30.02 in NW 6 mph 6 mph 88% 0 in 0.00 W/m2
23:34 32.9 °F 30 °F 30.02 in NW 5 mph 7 mph 89% 0 in 0.00 W/m2
23:39 33 °F 29.8 °F 30.02 in NW 4 mph 7 mph 88% 0 in 0.00 W/m2
23:44 32.8 °F 29.6 °F 30.02 in NW 4 mph 6 mph 88% 0 in 0.00 W/m2
23:49 32.6 °F 29.4 °F 30.02 in NW 4 mph 6 mph 88% 0 in 0.00 W/m2
23:54 32.4 °F 29.2 °F 30.02 in NW 4 mph 5 mph 88% 0 in 0.00 W/m2
23:59 32.3 °F 29.4 °F 30.02 in NW 4 mph 7 mph 89% 0 in 0.00 W/m2
Bismarck, North Dakota, USA
Compliments of Weather Underground - 4 mb